Time;durP1;ratioP1;P1;durP2;ratioP2;P2;SDS_P1;SDS_P2;PMS_P1;PMS_P2;Temp;Humidity;BMP_temperature;BMP_pressure;BME280_temperature;BME280_humidity;BME280_pressure;Samples;Min_cycle;Max_cycle;Signal;HPM_P1;HPM_P2
2022/10/12 00:00:38;;;;;;;18.40;13.50;;;13.20;99.90;;;;;;5087073;28;20209;-50
2022/10/12 00:03:05;;;;;;;21.30;15.93;;;13.20;99.90;;;;;;5081376;28;20223;-50
2022/10/12 00:05:32;;;;;;;19.20;12.30;;;13.20;99.90;;;;;;5075351;28;20208;-51
2022/10/12 00:07:59;;;;;;;25.57;14.87;;;13.20;99.90;;;;;;5079499;28;20577;-50
2022/10/12 00:10:26;;;;;;;22.67;14.50;;;13.20;99.90;;;;;;5077754;28;20258;-50
2022/10/12 00:12:55;;;;;;;26.77;15.10;;;13.20;99.90;;;;;;5082447;28;20216;-52
2022/10/12 00:15:22;;;;;;;21.47;15.43;;;13.30;99.90;;;;;;5082917;28;20271;-50
2022/10/12 00:17:49;;;;;;;20.23;14.30;;;13.30;99.90;;;;;;5076814;28;20205;-51
2022/10/12 00:20:16;;;;;;;18.57;14.07;;;13.30;99.90;;;;;;5086495;28;20220;-51
2022/10/12 00:22:43;;;;;;;19.87;14.77;;;13.30;99.90;;;;;;5077124;28;20231;-51
2022/10/12 00:25:10;;;;;;;22.40;15.77;;;13.30;99.90;;;;;;5080662;28;20682;-52
2022/10/12 00:27:37;;;;;;;26.93;17.93;;;13.30;99.90;;;;;;5077951;28;20200;-51
2022/10/12 00:30:06;;;;;;;23.33;16.37;;;13.30;99.90;;;;;;5083410;28;20208;-51
2022/10/12 00:32:33;;;;;;;23.53;15.60;;;13.30;99.90;;;;;;5082452;28;20212;-50
2022/10/12 00:35:00;;;;;;;20.03;14.17;;;13.30;99.90;;;;;;5074062;28;20204;-51
2022/10/12 00:37:27;;;;;;;25.33;16.67;;;13.40;99.90;;;;;;5074626;28;20621;-50
2022/10/12 00:39:54;;;;;;;21.70;14.60;;;13.50;99.90;;;;;;5078636;28;20224;-50
2022/10/12 00:42:22;;;;;;;24.80;15.57;;;13.50;99.90;;;;;;5084546;28;20209;-50
2022/10/12 00:44:50;;;;;;;23.13;15.57;;;13.40;99.90;;;;;;5084007;28;20199;-51
2022/10/12 00:47:24;;;;;;;29.13;16.93;;;13.40;99.90;;;;;;5086022;28;20204;-50
2022/10/12 00:49:55;;;;;;;25.37;16.03;;;13.50;99.90;;;;;;5093823;28;20211;-51
2022/10/12 00:52:28;;;;;;;24.33;16.80;;;13.50;99.90;;;;;;5085886;28;20220;-51
2022/10/12 00:54:55;;;;;;;27.03;15.77;;;13.40;99.90;;;;;;5083512;28;20224;-51
2022/10/12 00:57:23;;;;;;;22.73;16.17;;;13.50;99.90;;;;;;5082379;28;20200;-51
2022/10/12 00:59:54;;;;;;;23.53;15.47;;;13.50;99.90;;;;;;5074187;28;20248;-51
2022/10/12 01:02:26;;;;;;;18.53;14.73;;;13.50;99.90;;;;;;5085019;28;20647;-50
2022/10/12 01:04:53;;;;;;;22.70;14.30;;;13.50;99.90;;;;;;5083350;28;20686;-51
2022/10/12 01:07:20;;;;;;;21.43;16.03;;;13.50;99.90;;;;;;5080399;28;20196;-51
2022/10/12 01:09:48;;;;;;;20.90;15.23;;;13.60;99.90;;;;;;5083236;28;20204;-51
2022/10/12 01:12:16;;;;;;;20.40;15.40;;;13.60;99.90;;;;;;5087454;28;20216;-50
2022/10/12 01:14:43;;;;;;;25.67;15.40;;;13.60;99.90;;;;;;5093922;28;20212;-51
2022/10/12 01:17:21;;;;;;;26.03;16.43;;;13.60;99.90;;;;;;5092227;28;20215;-50
2022/10/12 01:20:29;;;;;;;21.57;14.83;;;13.60;99.90;;;;;;5080933;28;20224;-50
2022/10/12 01:23:12;;;;;;;23.20;13.90;;;13.60;99.90;;;;;;5080781;28;20236;-51
2022/10/12 01:25:58;;;;;;;18.50;14.47;;;13.60;99.90;;;;;;5084689;28;20204;-52
2022/10/12 01:28:36;;;;;;;24.63;14.23;;;13.60;99.90;;;;;;5081828;28;20201;-51
2022/10/12 01:31:14;;;;;;;25.27;16.03;;;13.60;99.90;;;;;;5085702;28;20208;-51
2022/10/12 01:33:48;;;;;;;23.37;14.97;;;13.70;99.90;;;;;;5087788;28;20197;-50
2022/10/12 01:36:20;;;;;;;23.27;14.20;;;13.70;99.90;;;;;;5093746;28;20565;-51
2022/10/12 01:38:54;;;;;;;24.50;16.33;;;13.70;99.90;;;;;;5093540;28;20314;-51
2022/10/12 01:41:26;;;;;;;18.40;15.17;;;13.70;99.90;;;;;;5088159;28;20200;-51
2022/10/12 01:43:53;;;;;;;18.97;15.37;;;13.70;99.90;;;;;;5081031;28;20212;-51
2022/10/12 01:46:43;;;;;;;21.90;15.40;;;13.60;99.90;;;;;;5083992;28;20204;-51
2022/10/12 01:49:12;;;;;;;26.20;14.83;;;13.60;99.90;;;;;;5073249;28;20203;-51
2022/10/12 01:51:54;;;;;;;20.50;13.83;;;13.60;99.90;;;;;;5080468;28;20271;-51
2022/10/12 01:54:34;;;;;;;18.07;14.77;;;13.60;99.90;;;;;;5087425;28;20204;-50
2022/10/12 01:57:09;;;;;;;18.83;13.43;;;13.60;99.90;;;;;;5090130;28;20567;-50
2022/10/12 01:59:45;;;;;;;18.00;13.17;;;13.60;99.90;;;;;;5076909;28;20216;-51
2022/10/12 02:02:23;;;;;;;22.00;13.63;;;13.60;99.90;;;;;;5088444;28;20234;-51
2022/10/12 02:04:58;;;;;;;22.27;14.10;;;13.60;99.90;;;;;;5084315;28;20205;-51
2022/10/12 02:07:31;;;;;;;19.57;13.67;;;13.60;99.90;;;;;;5093034;28;20204;-52
2022/10/12 02:10:01;;;;;;;21.83;14.23;;;13.50;99.90;;;;;;5087277;28;20659;-52
2022/10/12 02:12:30;;;;;;;16.87;13.53;;;13.50;99.90;;;;;;5092621;28;20212;-51
2022/10/12 02:15:02;;;;;;;21.97;15.47;;;13.60;99.90;;;;;;5088767;28;20216;-51
2022/10/12 02:17:32;;;;;;;24.70;15.27;;;13.70;99.90;;;;;;5086122;28;20218;-50
2022/10/12 02:20:00;;;;;;;20.63;16.47;;;13.70;99.90;;;;;;5081265;28;20220;-50
2022/10/12 02:22:33;;;;;;;20.23;14.73;;;13.70;99.90;;;;;;5076313;28;20317;-50
2022/10/12 02:25:03;;;;;;;21.53;14.70;;;13.70;99.90;;;;;;5072525;28;20273;-50
2022/10/12 02:27:33;;;;;;;23.53;16.37;;;13.80;99.90;;;;;;5075116;28;20205;-51
2022/10/12 02:30:00;;;;;;;23.07;16.70;;;13.70;99.90;;;;;;5084220;28;20191;-52
2022/10/12 02:32:35;;;;;;;19.57;15.60;;;13.70;99.90;;;;;;5090485;28;20220;-50
2022/10/12 02:35:08;;;;;;;21.97;16.07;;;13.60;99.90;;;;;;5086699;28;20205;-51
2022/10/12 02:37:39;;;;;;;27.70;17.67;;;13.60;99.90;;;;;;5080795;28;20193;-50
2022/10/12 02:40:12;;;;;;;24.33;17.07;;;13.50;99.90;;;;;;5092717;28;20257;-51
2022/10/12 02:42:46;;;;;;;22.40;16.20;;;13.50;99.90;;;;;;5090539;28;20701;-50
2022/10/12 02:45:15;;;;;;;27.17;15.40;;;13.50;99.90;;;;;;5079946;28;20564;-51
2022/10/12 02:47:46;;;;;;;33.07;16.40;;;13.50;99.90;;;;;;5084456;28;20200;-51
2022/10/12 02:50:17;;;;;;;20.97;16.17;;;13.50;99.90;;;;;;5087137;28;20193;-51
2022/10/12 02:52:45;;;;;;;20.27;15.83;;;13.50;99.90;;;;;;5072013;28;20906;-51
2022/10/12 02:55:12;;;;;;;27.77;16.90;;;13.40;99.90;;;;;;5071942;28;20671;-51
2022/10/12 02:57:39;;;;;;;26.23;17.27;;;13.40;99.90;;;;;;5079698;28;20200;-51
2022/10/12 03:00:07;;;;;;;19.40;15.80;;;13.50;99.90;;;;;;5079104;28;20209;-51
2022/10/12 03:02:35;;;;;;;19.87;15.03;;;13.50;99.90;;;;;;5080209;28;20224;-50
2022/10/12 03:05:04;;;;;;;25.23;15.03;;;13.40;99.90;;;;;;5080058;28;20201;-50
2022/10/12 03:07:31;;;;;;;22.67;16.73;;;13.30;99.90;;;;;;5092365;28;20196;-51
2022/10/12 03:09:58;;;;;;;24.00;18.10;;;13.40;99.90;;;;;;5089976;28;20226;-51
2022/10/12 03:12:25;;;;;;;37.23;19.17;;;13.60;99.90;;;;;;5079941;28;20224;-51
2022/10/12 03:14:53;;;;;;;35.73;20.43;;;13.50;99.90;;;;;;5075228;28;20340;-51
2022/10/12 03:17:20;;;;;;;28.20;19.73;;;13.40;99.90;;;;;;5080562;28;20204;-50
2022/10/12 03:19:47;;;;;;;29.83;19.40;;;13.30;99.90;;;;;;5081959;28;20877;-51
2022/10/12 03:22:15;;;;;;;29.53;19.80;;;13.30;99.90;;;;;;5075634;28;20228;-50
2022/10/12 03:24:42;;;;;;;31.17;19.77;;;13.30;99.90;;;;;;5080179;28;20220;-50
2022/10/12 03:27:09;;;;;;;28.13;17.83;;;13.30;99.90;;;;;;5080213;28;20242;-50
2022/10/12 03:29:36;;;;;;;26.07;18.43;;;13.40;99.90;;;;;;5085735;28;20581;-50
2022/10/12 03:32:04;;;;;;;25.83;18.23;;;13.40;99.90;;;;;;5079658;28;20216;-50
2022/10/12 03:34:31;;;;;;;25.73;17.93;;;13.40;99.90;;;;;;5071735;28;20670;-50
2022/10/12 03:36:58;;;;;;;32.10;17.43;;;13.40;99.90;;;;;;5084712;28;20200;-50
2022/10/12 03:39:26;;;;;;;23.47;15.90;;;13.30;99.90;;;;;;5090955;28;20601;-51
2022/10/12 03:41:53;;;;;;;18.40;13.37;;;13.30;99.90;;;;;;5081535;28;20247;-50
2022/10/12 03:44:20;;;;;;;16.10;13.20;;;13.30;99.90;;;;;;5076434;28;20197;-50
2022/10/12 03:46:47;;;;;;;22.50;14.23;;;13.30;99.90;;;;;;5082439;28;20201;-50
2022/10/12 03:49:14;;;;;;;16.40;14.43;;;13.30;99.90;;;;;;5082336;28;20216;-50
2022/10/12 03:51:41;;;;;;;17.80;13.43;;;13.20;99.90;;;;;;5086932;28;20212;-51
2022/10/12 03:54:08;;;;;;;15.53;12.63;;;13.30;99.90;;;;;;5075459;28;20228;-50
2022/10/12 03:56:37;;;;;;;22.33;12.83;;;13.20;99.90;;;;;;5075461;28;20205;-50
2022/10/12 03:59:04;;;;;;;19.43;14.50;;;13.20;99.90;;;;;;5075489;28;20613;-50
2022/10/12 04:01:31;;;;;;;17.17;13.37;;;13.30;99.90;;;;;;5079700;28;20712;-50
2022/10/12 04:03:58;;;;;;;17.63;14.10;;;13.30;99.90;;;;;;5077645;28;20584;-50
2022/10/12 04:06:25;;;;;;;17.57;13.87;;;13.30;99.90;;;;;;5080270;28;20205;-50
2022/10/12 04:08:52;;;;;;;17.40;13.20;;;13.30;99.90;;;;;;5091507;28;20204;-51
2022/10/12 04:11:20;;;;;;;16.40;12.97;;;13.30;99.90;;;;;;5084944;28;20607;-50
2022/10/12 04:13:48;;;;;;;20.27;12.70;;;13.30;99.90;;;;;;5085527;28;20204;-49
2022/10/12 04:16:15;;;;;;;19.30;12.43;;;13.40;99.90;;;;;;5075253;28;20204;-50
2022/10/12 04:18:42;;;;;;;16.20;12.57;;;13.40;99.90;;;;;;5083458;28;20204;-50
2022/10/12 04:21:12;;;;;;;15.03;12.53;;;13.40;99.90;;;;;;5088350;28;20246;-50
2022/10/12 04:23:40;;;;;;;18.13;12.97;;;13.40;99.90;;;;;;5092110;28;20593;-50
2022/10/12 04:26:07;;;;;;;16.03;12.17;;;13.40;99.90;;;;;;5093894;28;20208;-50
2022/10/12 04:28:34;;;;;;;11.97;10.23;;;13.30;99.90;;;;;;5095317;28;20205;-50
2022/10/12 04:31:03;;;;;;;17.23;10.43;;;13.30;99.90;;;;;;5095330;28;20226;-50
2022/10/12 04:33:30;;;;;;;13.27;11.23;;;13.30;99.90;;;;;;5086020;28;20216;-49
2022/10/12 04:35:57;;;;;;;15.20;10.70;;;13.20;99.90;;;;;;5089606;28;20209;-50
2022/10/12 04:38:24;;;;;;;13.77;11.63;;;13.20;99.90;;;;;;5081971;28;20204;-50
2022/10/12 04:40:51;;;;;;;19.57;12.53;;;13.20;99.90;;;;;;5085733;28;20706;-50
2022/10/12 04:43:18;;;;;;;13.53;12.23;;;13.20;99.90;;;;;;5076594;28;21017;-50
2022/10/12 04:45:53;;;;;;;15.50;13.13;;;13.20;99.90;;;;;;5086794;28;20696;-50
2022/10/12 04:48:22;;;;;;;13.83;11.93;;;13.10;99.90;;;;;;5078742;28;20210;-49
2022/10/12 04:50:49;;;;;;;14.43;12.00;;;13.10;99.90;;;;;;5082801;28;20208;-50
2022/10/12 04:53:16;;;;;;;13.07;11.77;;;13.10;99.90;;;;;;5094512;28;20220;-50
2022/10/12 04:55:43;;;;;;;13.40;11.83;;;13.10;99.90;;;;;;5090070;28;20196;-50
2022/10/12 04:58:10;;;;;;;15.97;12.73;;;13.10;99.90;;;;;;5085469;28;20211;-50
2022/10/12 05:00:37;;;;;;;15.03;11.07;;;13.10;99.90;;;;;;5092098;28;20245;-49
2022/10/12 05:03:06;;;;;;;16.63;11.63;;;13.20;99.90;;;;;;5082515;28;20216;-49
2022/10/12 05:05:35;;;;;;;18.07;11.17;;;13.20;99.90;;;;;;5074478;28;20207;-50
2022/10/12 05:08:02;;;;;;;14.70;12.50;;;13.20;99.90;;;;;;5074620;28;20229;-50
2022/10/12 05:10:29;;;;;;;14.50;11.00;;;13.20;99.90;;;;;;5075166;28;20212;-50
2022/10/12 05:12:56;;;;;;;16.87;12.07;;;13.20;99.90;;;;;;5081829;28;20233;-50
2022/10/12 05:15:23;;;;;;;16.73;13.17;;;13.20;99.90;;;;;;5081077;28;20197;-50
2022/10/12 05:17:50;;;;;;;20.00;13.63;;;13.20;99.90;;;;;;5092133;28;20217;-50
2022/10/12 05:20:17;;;;;;;16.47;12.53;;;13.20;99.90;;;;;;5094205;28;20303;-50
2022/10/12 05:22:45;;;;;;;22.03;13.37;;;13.20;99.90;;;;;;5094025;28;20257;-50
2022/10/12 05:25:12;;;;;;;16.03;12.73;;;13.20;99.90;;;;;;5093438;28;20204;-50
2022/10/12 05:27:39;;;;;;;13.97;11.67;;;13.20;99.90;;;;;;5083278;28;20205;-50
2022/10/12 05:30:08;;;;;;;20.70;13.90;;;13.20;99.90;;;;;;5081324;28;20193;-50
2022/10/12 05:32:35;;;;;;;17.33;14.73;;;13.20;99.90;;;;;;5079967;28;20224;-50
2022/10/12 05:35:03;;;;;;;18.27;13.57;;;13.30;99.90;;;;;;5086123;28;20259;-50
2022/10/12 05:37:30;;;;;;;23.53;14.13;;;13.30;99.90;;;;;;5076496;28;20663;-50
2022/10/12 05:39:59;;;;;;;20.80;14.90;;;13.30;99.90;;;;;;5079072;28;20197;-50
2022/10/12 05:42:26;;;;;;;21.10;14.87;;;13.30;99.90;;;;;;5093754;28;20223;-50
2022/10/12 05:44:53;;;;;;;17.57;14.90;;;13.30;99.90;;;;;;5090273;28;20200;-50
2022/10/12 05:47:20;;;;;;;20.43;15.00;;;13.30;99.90;;;;;;5080067;28;20204;-50
2022/10/12 05:49:47;;;;;;;19.40;13.73;;;13.30;99.90;;;;;;5086482;28;20496;-50
2022/10/12 05:52:14;;;;;;;16.43;13.80;;;13.30;99.90;;;;;;5085214;28;20710;-50
2022/10/12 05:54:41;;;;;;;14.53;13.03;;;13.30;99.90;;;;;;5077529;28;20193;-50
2022/10/12 05:57:10;;;;;;;20.97;14.83;;;13.30;99.90;;;;;;5073469;28;20205;-50
2022/10/12 05:59:37;;;;;;;23.23;15.17;;;13.30;99.90;;;;;;5080654;28;20671;-50
2022/10/12 06:02:04;;;;;;;19.63;15.27;;;13.40;99.90;;;;;;5075689;28;20235;-50
2022/10/12 06:04:31;;;;;;;20.90;14.43;;;13.40;99.90;;;;;;5084350;28;20283;-50
2022/10/12 06:06:58;;;;;;;20.63;14.40;;;13.30;99.90;;;;;;5089298;28;20192;-50
2022/10/12 06:09:25;;;;;;;20.90;15.77;;;13.40;99.90;;;;;;5090725;28;20195;-50
2022/10/12 06:11:52;;;;;;;19.00;15.53;;;13.40;99.90;;;;;;5092960;28;20224;-50
2022/10/12 06:14:20;;;;;;;20.70;15.70;;;13.40;99.90;;;;;;5088461;28;20235;-50
2022/10/12 06:16:48;;;;;;;22.88;20.45;;;13.40;99.90;;;;;;5077463;28;20465;-51
2022/10/12 06:19:15;;;;;;;17.80;15.80;;;13.50;99.90;;;;;;5082522;28;20205;-50
2022/10/12 06:21:42;;;;;;;18.37;16.20;;;13.50;99.90;;;;;;5082003;28;20220;-51
2022/10/12 06:24:09;;;;;;;24.73;16.53;;;13.50;99.90;;;;;;5084543;28;20693;-51
2022/10/12 06:26:36;;;;;;;27.93;16.47;;;13.50;99.90;;;;;;5090544;28;20196;-52
2022/10/12 06:29:03;;;;;;;26.07;18.30;;;13.60;99.90;;;;;;5080189;28;20200;-51
2022/10/12 06:31:33;;;;;;;22.77;16.30;;;13.60;99.90;;;;;;5080410;28;20280;-51
2022/10/12 06:34:00;;;;;;;28.27;17.83;;;13.60;99.90;;;;;;5071971;28;20284;-52
2022/10/12 06:36:27;;;;;;;26.37;16.97;;;13.60;99.90;;;;;;5072538;28;20205;-53
2022/10/12 06:38:54;;;;;;;24.77;18.43;;;13.60;99.90;;;;;;5085615;28;20570;-52
2022/10/12 06:41:21;;;;;;;21.20;16.37;;;13.60;99.90;;;;;;5089551;28;20697;-50
2022/10/12 06:43:48;;;;;;;22.00;16.37;;;13.60;99.90;;;;;;5090234;28;20201;-50
2022/10/12 06:46:15;;;;;;;18.80;16.17;;;13.60;99.90;;;;;;5092357;28;20207;-51
2022/10/12 06:48:45;;;;;;;28.47;19.43;;;13.70;99.90;;;;;;5092124;28;20204;-50
2022/10/12 06:51:12;;;;;;;23.97;16.20;;;13.70;99.90;;;;;;5092252;28;20666;-50
2022/10/12 06:53:40;;;;;;;22.53;16.93;;;13.70;99.90;;;;;;5084314;28;20227;-52
2022/10/12 06:56:07;;;;;;;22.63;17.33;;;13.70;99.90;;;;;;5082152;28;20201;-50
2022/10/12 06:58:34;;;;;;;17.93;15.00;;;13.70;99.90;;;;;;5081819;28;20200;-51
2022/10/12 07:01:03;;;;;;;27.63;17.93;;;13.70;99.90;;;;;;5092014;28;20277;-51
2022/10/12 07:03:30;;;;;;;23.53;18.40;;;13.80;99.90;;;;;;5091641;28;20311;-52
2022/10/12 07:06:10;;;;;;;24.70;17.60;;;13.80;99.90;;;;;;5092196;28;20204;-51
2022/10/12 07:08:41;;;;;;;22.00;16.20;;;13.80;99.90;;;;;;5082007;28;20220;-51
2022/10/12 07:11:10;;;;;;;25.97;18.70;;;13.90;99.90;;;;;;5071686;28;20197;-51
2022/10/12 07:13:37;;;;;;;20.90;17.00;;;13.90;99.90;;;;;;5071265;28;20567;-52
2022/10/12 07:16:04;;;;;;;24.17;17.17;;;13.90;99.90;;;;;;5083751;28;20209;-51
2022/10/12 07:18:32;;;;;;;31.43;17.93;;;13.90;99.90;;;;;;5077123;28;20208;-51
2022/10/12 07:21:01;;;;;;;27.70;19.37;;;13.90;99.90;;;;;;5070761;28;20229;-50
2022/10/12 07:23:30;;;;;;;28.97;19.30;;;13.90;99.90;;;;;;5075869;28;20228;-51
2022/10/12 07:25:57;;;;;;;30.47;18.27;;;13.90;99.90;;;;;;5090064;28;20204;-51
2022/10/12 07:28:25;;;;;;;29.87;18.17;;;13.90;99.90;;;;;;5091303;28;20212;-51
2022/10/12 07:30:52;;;;;;;30.63;18.60;;;14.00;99.90;;;;;;5091857;28;20565;-50
2022/10/12 07:33:19;;;;;;;26.30;18.37;;;14.00;99.90;;;;;;5090366;28;20231;-50
2022/10/12 07:35:54;;;;;;;24.30;17.07;;;14.10;99.90;;;;;;5074316;28;20250;-51
2022/10/12 07:38:21;;;;;;;21.63;17.53;;;14.20;99.90;;;;;;5073791;28;20279;-50
2022/10/12 07:40:49;;;;;;;28.90;21.17;;;14.30;99.90;;;;;;5078470;28;20691;-51
2022/10/12 07:43:16;;;;;;;32.80;19.90;;;14.40;99.90;;;;;;5070562;28;20629;-51
2022/10/12 07:45:44;;;;;;;26.83;19.03;;;14.40;99.90;;;;;;5077105;28;20261;-51
2022/10/12 07:48:11;;;;;;;27.73;18.67;;;14.40;99.90;;;;;;5083270;28;20245;-51
2022/10/12 07:50:38;;;;;;;28.17;19.60;;;14.40;99.90;;;;;;5075732;28;20201;-51
2022/10/12 07:53:05;;;;;;;30.90;19.03;;;14.50;99.90;;;;;;5075349;28;20275;-51
2022/10/12 07:55:32;;;;;;;30.07;19.97;;;14.50;99.90;;;;;;5079394;28;20205;-52
2022/10/12 07:58:01;;;;;;;26.53;19.73;;;14.50;99.90;;;;;;5072799;28;20295;-51
2022/10/12 08:00:29;;;;;;;28.57;19.47;;;14.50;99.90;;;;;;5075735;28;20251;-51
2022/10/12 08:02:56;;;;;;;26.83;18.97;;;14.60;99.90;;;;;;5082214;28;20319;-52
2022/10/12 08:05:23;;;;;;;36.47;21.47;;;14.60;99.90;;;;;;5090149;28;20234;-51
2022/10/12 08:07:51;;;;;;;30.83;20.17;;;14.60;99.90;;;;;;5089359;28;20216;-51
2022/10/12 08:10:19;;;;;;;30.00;19.97;;;14.60;99.90;;;;;;5080972;28;20636;-51
2022/10/12 08:12:46;;;;;;;35.77;21.70;;;14.60;99.90;;;;;;5088877;28;20223;-51
2022/10/12 08:15:15;;;;;;;31.33;21.43;;;14.70;99.90;;;;;;5087735;28;20279;-52
2022/10/12 08:17:42;;;;;;;35.10;21.07;;;14.70;99.90;;;;;;5087837;28;20204;-51
2022/10/12 08:20:10;;;;;;;30.23;21.73;;;14.70;99.90;;;;;;5085552;28;20255;-50
2022/10/12 08:22:37;;;;;;;33.33;22.30;;;14.80;99.90;;;;;;5081037;28;20273;-50
2022/10/12 08:25:04;;;;;;;29.70;22.27;;;14.80;99.90;;;;;;5081580;28;20246;-51
2022/10/12 08:27:31;;;;;;;28.87;21.37;;;14.90;99.90;;;;;;5081952;28;20693;-51
2022/10/12 08:29:58;;;;;;;36.13;23.07;;;15.00;99.90;;;;;;5070302;28;20198;-50
2022/10/12 08:32:27;;;;;;;31.27;21.53;;;15.00;99.90;;;;;;5073390;28;20209;-51
2022/10/12 08:34:54;;;;;;;29.50;20.80;;;14.90;99.90;;;;;;5073423;28;20201;-50
2022/10/12 08:37:21;;;;;;;36.13;21.47;;;15.00;99.90;;;;;;5073744;28;20197;-50
2022/10/12 08:39:48;;;;;;;39.13;25.40;;;15.10;99.90;;;;;;5075248;28;20228;-51
2022/10/12 08:42:31;;;;;;;35.10;21.70;;;15.10;99.90;;;;;;5074316;28;20571;-51
2022/10/12 08:45:25;;;;;;;33.57;22.83;;;15.20;99.90;;;;;;5081237;28;20262;-50
2022/10/12 08:47:57;;;;;;;38.63;23.17;;;15.20;99.90;;;;;;5092327;28;20245;-50
2022/10/12 08:50:29;;;;;;;37.60;22.30;;;15.20;99.90;;;;;;5078789;28;20197;-51
2022/10/12 08:53:01;;;;;;;31.40;20.20;;;15.30;99.90;;;;;;5073155;28;20271;-50
2022/10/12 08:55:35;;;;;;;35.77;21.00;;;15.30;99.90;;;;;;5073558;28;20189;-50
2022/10/12 08:58:03;;;;;;;34.63;22.67;;;15.40;99.90;;;;;;5079764;28;20263;-50
2022/10/12 09:00:34;;;;;;;33.17;22.33;;;15.50;99.90;;;;;;5073856;28;20758;-50
2022/10/12 09:03:24;;;;;;;31.67;21.63;;;15.60;99.90;;;;;;5092050;28;20254;-51
2022/10/12 09:05:58;;;;;;;28.50;20.80;;;15.80;99.90;;;;;;5093851;28;20208;-52
2022/10/12 09:08:35;;;;;;;32.27;22.17;;;15.90;99.90;;;;;;5094127;28;20239;-51
2022/10/12 09:11:12;;;;;;;41.07;23.53;;;15.90;99.90;;;;;;5092591;28;20634;-51
2022/10/12 09:13:50;;;;;;;28.57;21.57;;;15.90;99.90;;;;;;5092971;28;20232;-50
2022/10/12 09:16:23;;;;;;;30.00;21.30;;;16.00;99.90;;;;;;5073833;28;20197;-51
2022/10/12 09:18:56;;;;;;;43.57;23.37;;;16.10;99.90;;;;;;5073755;28;20229;-51
2022/10/12 09:21:27;;;;;;;28.87;21.27;;;16.20;99.90;;;;;;5079436;28;20229;-51
2022/10/12 09:23:56;;;;;;;29.93;22.07;;;16.20;99.90;;;;;;5081370;28;20197;-51
2022/10/12 09:26:33;;;;;;;32.83;21.33;;;16.30;99.90;;;;;;5077222;28;20197;-51
2022/10/12 09:29:01;;;;;;;33.47;21.13;;;16.20;99.90;;;;;;5087526;28;20292;-51
2022/10/12 09:31:51;;;;;;;28.70;20.37;;;16.20;99.90;;;;;;5091860;28;20596;-51
2022/10/12 09:34:20;;;;;;;24.47;18.50;;;16.40;99.90;;;;;;5088970;28;20682;-51
2022/10/12 09:36:47;;;;;;;29.97;19.47;;;16.60;99.90;;;;;;5083985;28;20204;-50
2022/10/12 09:39:18;;;;;;;23.63;18.83;;;16.70;99.90;;;;;;5079661;28;20197;-50
2022/10/12 09:41:47;;;;;;;21.53;15.97;;;16.70;99.90;;;;;;5073152;28;20225;-51
2022/10/12 09:44:24;;;;;;;23.47;16.27;;;17.00;99.90;;;;;;5077134;28;20209;-51
2022/10/12 09:46:55;;;;;;;22.20;16.97;;;17.00;99.90;;;;;;5080071;28;20197;-51
2022/10/12 09:49:39;;;;;;;16.67;14.90;;;17.00;99.90;;;;;;5092066;28;20201;-51
2022/10/12 09:52:06;;;;;;;17.10;13.20;;;17.00;99.90;;;;;;5072998;28;20225;-51
2022/10/12 09:54:34;;;;;;;18.07;13.70;;;17.10;99.90;;;;;;5076910;28;20209;-50
2022/10/12 09:57:02;;;;;;;19.07;13.07;;;17.10;99.90;;;;;;5085186;28;20205;-51
2022/10/12 09:59:33;;;;;;;16.03;12.67;;;17.20;99.90;;;;;;5087046;28;20205;-51
2022/10/12 10:02:15;;;;;;;18.17;13.73;;;17.40;99.90;;;;;;5071897;28;20224;-51
2022/10/12 10:04:45;;;;;;;15.27;13.30;;;17.50;99.90;;;;;;5085973;28;20208;-51
2022/10/12 10:07:19;;;;;;;17.73;13.47;;;17.60;99.90;;;;;;5071612;28;20459;-51
2022/10/12 10:09:47;;;;;;;17.90;12.53;;;17.70;99.90;;;;;;5072103;28;20220;-50
2022/10/12 10:12:23;;;;;;;21.93;15.10;;;17.70;99.90;;;;;;5078290;28;20713;-52
2022/10/12 10:14:52;;;;;;;17.80;14.33;;;17.70;99.90;;;;;;5071618;28;20192;-51
2022/10/12 10:17:26;;;;;;;20.40;13.17;;;17.80;99.90;;;;;;5071950;28;20201;-51
2022/10/12 10:19:56;;;;;;;18.93;12.20;;;17.80;99.90;;;;;;5072582;28;20252;-51
2022/10/12 10:22:24;;;;;;;15.33;11.70;;;18.00;99.90;;;;;;5084905;28;20224;-51
2022/10/12 10:24:53;;;;;;;14.03;12.47;;;18.30;99.90;;;;;;5080778;28;20207;-51
2022/10/12 10:27:33;;;;;;;17.77;12.47;;;19.00;99.90;;;;;;5079702;28;20246;-51
2022/10/12 10:30:22;;;;;;;21.87;15.80;;;19.50;99.90;;;;;;5083676;28;20693;-51
2022/10/12 10:33:06;;;;;;;22.40;15.43;;;20.10;99.90;;;;;;5085057;28;20220;-51
2022/10/12 10:35:35;;;;;;;28.47;17.20;;;19.80;99.90;;;;;;5076312;28;20204;-51
2022/10/12 10:38:02;;;;;;;23.20;17.43;;;19.40;99.90;;;;;;5082958;28;20915;-51
2022/10/12 10:40:31;;;;;;;23.87;19.67;;;19.00;99.90;;;;;;5087175;28;20208;-51
2022/10/12 10:43:02;;;;;;;24.87;19.30;;;18.60;99.90;;;;;;5090659;28;20701;-51
2022/10/12 10:45:33;;;;;;;26.23;19.20;;;18.20;99.90;;;;;;5083308;28;20212;-51
2022/10/12 10:48:07;;;;;;;24.80;19.50;;;17.80;99.90;;;;;;5084214;28;20196;-50
2022/10/12 10:50:39;;;;;;;30.93;20.20;;;17.50;99.90;;;;;;5078802;28;20603;-51
2022/10/12 10:53:21;;;;;;;28.33;20.23;;;17.30;99.90;;;;;;5082432;28;20217;-50
2022/10/12 10:55:52;;;;;;;27.57;20.43;;;17.30;99.90;;;;;;5084401;28;20204;-51
2022/10/12 10:58:26;;;;;;;29.53;20.23;;;17.20;99.90;;;;;;5077535;28;20209;-51
2022/10/12 11:00:58;;;;;;;30.50;18.03;;;17.40;99.90;;;;;;5071769;28;20208;-51
2022/10/12 11:03:32;;;;;;;26.03;18.13;;;17.30;99.90;;;;;;5074058;28;20227;-51
2022/10/12 11:06:16;;;;;;;21.87;17.73;;;17.40;99.90;;;;;;5086485;28;20197;-50
2022/10/12 11:08:45;;;;;;;25.17;17.83;;;17.60;99.90;;;;;;5071693;28;20216;-50
2022/10/12 11:11:15;;;;;;;25.77;17.80;;;17.70;99.90;;;;;;5073279;28;20204;-52
2022/10/12 11:13:55;;;;;;;25.33;18.07;;;17.70;99.90;;;;;;5078702;28;20216;-51
2022/10/12 11:16:28;;;;;;;25.13;17.70;;;17.70;99.90;;;;;;5086283;28;20219;-51
2022/10/12 11:18:58;;;;;;;25.83;18.63;;;17.90;99.90;;;;;;5091719;28;20200;-51
2022/10/12 11:21:32;;;;;;;25.10;17.33;;;18.10;99.90;;;;;;5088608;28;20207;-50
2022/10/12 11:24:08;;;;;;;33.93;18.80;;;18.20;99.90;;;;;;5085450;28;20196;-50
2022/10/12 11:26:40;;;;;;;29.00;18.80;;;18.00;99.90;;;;;;5081718;28;20208;-51
2022/10/12 11:29:11;;;;;;;28.77;17.63;;;17.90;99.90;;;;;;5071374;28;20198;-50
2022/10/12 11:31:43;;;;;;;20.20;16.73;;;18.00;99.90;;;;;;5071278;28;20201;-51
2022/10/12 11:34:16;;;;;;;20.53;16.33;;;18.00;99.90;;;;;;5070320;28;20655;-50
2022/10/12 11:36:50;;;;;;;25.37;18.30;;;17.80;99.90;;;;;;5072492;28;20230;-52
2022/10/12 11:39:23;;;;;;;26.57;18.83;;;17.90;99.90;;;;;;5076540;28;20205;-50
2022/10/12 11:41:54;;;;;;;25.60;18.17;;;17.70;99.90;;;;;;5070536;28;21668;-50
2022/10/12 11:44:26;;;;;;;32.23;19.83;;;17.70;99.90;;;;;;5070632;28;20197;-51
2022/10/12 11:47:00;;;;;;;23.30;17.50;;;17.50;99.90;;;;;;5070959;28;20292;-51
2022/10/12 11:49:32;;;;;;;29.50;18.67;;;17.40;99.90;;;;;;5077202;28;20205;-51
2022/10/12 11:52:09;;;;;;;24.90;19.03;;;17.40;99.90;;;;;;5075705;28;20267;-50
2022/10/12 11:54:43;;;;;;;25.00;16.57;;;17.30;99.90;;;;;;5077984;28;20728;-54
2022/10/12 11:57:15;;;;;;;28.60;16.53;;;17.20;99.90;;;;;;5070416;28;20203;-51
2022/10/12 11:59:45;;;;;;;23.77;15.57;;;17.40;99.90;;;;;;5079523;28;20242;-51
2022/10/12 12:02:20;;;;;;;28.77;16.70;;;17.50;99.90;;;;;;5087952;28;20366;-51
2022/10/12 12:04:48;;;;;;;28.07;19.10;;;17.50;99.90;;;;;;5075536;28;20678;-51
2022/10/12 12:07:43;;;;;;;25.23;18.43;;;17.30;99.90;;;;;;5090425;28;21005;-51
2022/10/12 12:11:01;;;;;;;24.60;18.07;;;17.30;99.90;;;;;;5092194;28;20242;-51
2022/10/12 12:13:29;;;;;;;29.77;17.90;;;17.20;99.90;;;;;;5092861;28;20273;-51
2022/10/12 12:16:29;;;;;;;27.67;17.27;;;17.00;99.90;;;;;;5092695;28;20200;-51
2022/10/12 12:19:33;;;;;;;23.93;17.23;;;17.00;99.90;;;;;;5088600;28;20932;-51
2022/10/12 12:22:31;;;;;;;22.83;16.57;;;17.20;99.90;;;;;;5086779;28;20231;-51
2022/10/12 12:25:13;;;;;;;23.47;16.53;;;17.30;99.90;;;;;;5093076;28;20200;-51
2022/10/12 12:27:43;;;;;;;23.23;16.37;;;17.30;99.90;;;;;;5074295;28;20201;-51
2022/10/12 12:30:33;;;;;;;25.70;16.53;;;17.30;99.90;;;;;;5079674;28;20205;-51
2022/10/12 12:33:02;;;;;;;20.70;16.63;;;17.30;99.90;;;;;;5087910;28;20217;-51
2022/10/12 12:35:34;;;;;;;19.47;16.47;;;17.40;99.90;;;;;;5091925;28;20283;-51
2022/10/12 12:38:14;;;;;;;21.43;15.87;;;17.70;99.90;;;;;;5076705;28;20201;-50
2022/10/12 12:40:53;;;;;;;20.20;16.60;;;17.90;99.90;;;;;;5073991;28;20290;-51
2022/10/12 12:43:52;;;;;;;26.83;16.83;;;17.80;99.90;;;;;;5073497;28;20213;-51
2022/10/12 12:46:19;;;;;;;26.07;16.47;;;17.70;99.90;;;;;;5073968;28;20193;-51